sensor_id;sensor_type;location;lat;lon;timestamp;P1;durP1;ratioP1;P2;durP2;ratioP2
26622;SDS011;14254;50.968;5.366;2022-11-11T00:01:31;15.95;;;6.38;;
26622;SDS011;14254;50.968;5.366;2022-11-11T00:03:56;12.85;;;6.03;;
26622;SDS011;14254;50.968;5.366;2022-11-11T00:06:22;16.23;;;5.88;;
26622;SDS011;14254;50.968;5.366;2022-11-11T00:08:47;11.93;;;5.55;;
26622;SDS011;14254;50.968;5.366;2022-11-11T00:11:14;14.00;;;5.95;;
26622;SDS011;14254;50.968;5.366;2022-11-11T00:13:41;12.52;;;5.93;;
26622;SDS011;14254;50.968;5.366;2022-11-11T00:18:33;7.38;;;4.70;;
26622;SDS011;14254;50.968;5.366;2022-11-11T00:21:18;13.25;;;5.68;;
26622;SDS011;14254;50.968;5.366;2022-11-11T00:24:11;7.85;;;5.28;;
26622;SDS011;14254;50.968;5.366;2022-11-11T00:27:04;13.23;;;5.60;;
26622;SDS011;14254;50.968;5.366;2022-11-11T00:29:30;13.00;;;6.07;;
26622;SDS011;14254;50.968;5.366;2022-11-11T00:31:56;13.02;;;6.30;;
26622;SDS011;14254;50.968;5.366;2022-11-11T00:34:40;11.05;;;6.18;;
26622;SDS011;14254;50.968;5.366;2022-11-11T00:37:25;16.25;;;6.85;;
26622;SDS011;14254;50.968;5.366;2022-11-11T00:39:51;11.38;;;6.22;;
26622;SDS011;14254;50.968;5.366;2022-11-11T00:42:16;10.35;;;6.25;;
26622;SDS011;14254;50.968;5.366;2022-11-11T00:44:42;11.20;;;6.20;;
26622;SDS011;14254;50.968;5.366;2022-11-11T00:47:08;13.68;;;6.35;;
26622;SDS011;14254;50.968;5.366;2022-11-11T00:49:52;15.48;;;6.95;;
26622;SDS011;14254;50.968;5.366;2022-11-11T00:52:36;17.33;;;6.85;;
26622;SDS011;14254;50.968;5.366;2022-11-11T00:55:02;11.25;;;6.70;;
26622;SDS011;14254;50.968;5.366;2022-11-11T00:57:28;12.60;;;7.18;;
26622;SDS011;14254;50.968;5.366;2022-11-11T00:59:53;16.38;;;6.13;;
26622;SDS011;14254;50.968;5.366;2022-11-11T01:02:19;14.13;;;5.82;;
26622;SDS011;14254;50.968;5.366;2022-11-11T01:04:44;13.18;;;5.78;;
26622;SDS011;14254;50.968;5.366;2022-11-11T01:07:10;12.15;;;5.82;;
26622;SDS011;14254;50.968;5.366;2022-11-11T01:09:36;11.70;;;6.15;;
26622;SDS011;14254;50.968;5.366;2022-11-11T01:12:01;17.00;;;6.72;;
26622;SDS011;14254;50.968;5.366;2022-11-11T01:14:27;18.40;;;6.78;;
26622;SDS011;14254;50.968;5.366;2022-11-11T01:16:54;19.48;;;7.18;;
26622;SDS011;14254;50.968;5.366;2022-11-11T01:19:19;21.08;;;8.30;;
26622;SDS011;14254;50.968;5.366;2022-11-11T01:21:45;15.55;;;6.93;;
26622;SDS011;14254;50.968;5.366;2022-11-11T01:24:11;15.70;;;7.47;;
26622;SDS011;14254;50.968;5.366;2022-11-11T01:26:36;14.07;;;7.68;;
26622;SDS011;14254;50.968;5.366;2022-11-11T01:29:02;11.90;;;7.00;;
26622;SDS011;14254;50.968;5.366;2022-11-11T01:31:27;19.20;;;7.55;;
26622;SDS011;14254;50.968;5.366;2022-11-11T01:33:53;18.45;;;7.63;;
26622;SDS011;14254;50.968;5.366;2022-11-11T01:36:21;14.50;;;7.72;;
26622;SDS011;14254;50.968;5.366;2022-11-11T01:38:51;13.80;;;8.27;;
26622;SDS011;14254;50.968;5.366;2022-11-11T01:41:21;17.63;;;6.88;;
26622;SDS011;14254;50.968;5.366;2022-11-11T01:44:18;18.40;;;7.97;;
26622;SDS011;14254;50.968;5.366;2022-11-11T01:47:03;17.95;;;8.00;;
26622;SDS011;14254;50.968;5.366;2022-11-11T01:54:53;19.90;;;7.75;;
26622;SDS011;14254;50.968;5.366;2022-11-11T01:57:31;19.45;;;7.47;;
26622;SDS011;14254;50.968;5.366;2022-11-11T02:00:06;15.55;;;8.20;;
26622;SDS011;14254;50.968;5.366;2022-11-11T02:05:05;22.00;;;7.95;;
26622;SDS011;14254;50.968;5.366;2022-11-11T02:07:52;14.27;;;7.60;;
26622;SDS011;14254;50.968;5.366;2022-11-11T02:10:20;12.85;;;7.40;;
26622;SDS011;14254;50.968;5.366;2022-11-11T02:12:48;19.15;;;8.07;;
26622;SDS011;14254;50.968;5.366;2022-11-11T02:15:33;17.10;;;7.38;;
26622;SDS011;14254;50.968;5.366;2022-11-11T02:18:01;15.25;;;7.25;;
26622;SDS011;14254;50.968;5.366;2022-11-11T02:20:28;23.23;;;6.95;;
26622;SDS011;14254;50.968;5.366;2022-11-11T02:25:54;19.17;;;7.57;;
26622;SDS011;14254;50.968;5.366;2022-11-11T02:28:22;16.90;;;6.57;;
26622;SDS011;14254;50.968;5.366;2022-11-11T02:30:49;15.02;;;7.15;;
26622;SDS011;14254;50.968;5.366;2022-11-11T02:33:15;16.50;;;7.35;;
26622;SDS011;14254;50.968;5.366;2022-11-11T02:35:42;15.52;;;6.97;;
26622;SDS011;14254;50.968;5.366;2022-11-11T02:38:19;15.13;;;6.60;;
26622;SDS011;14254;50.968;5.366;2022-11-11T02:40:46;14.73;;;7.75;;
26622;SDS011;14254;50.968;5.366;2022-11-11T02:43:30;13.00;;;7.05;;
26622;SDS011;14254;50.968;5.366;2022-11-11T02:45:57;17.30;;;7.50;;
26622;SDS011;14254;50.968;5.366;2022-11-11T02:48:24;14.75;;;7.57;;
26622;SDS011;14254;50.968;5.366;2022-11-11T02:50:50;17.13;;;6.93;;
26622;SDS011;14254;50.968;5.366;2022-11-11T02:53:16;16.98;;;8.35;;
26622;SDS011;14254;50.968;5.366;2022-11-11T02:55:41;16.83;;;7.90;;
26622;SDS011;14254;50.968;5.366;2022-11-11T02:58:07;13.80;;;7.07;;
26622;SDS011;14254;50.968;5.366;2022-11-11T03:00:33;17.48;;;7.30;;
26622;SDS011;14254;50.968;5.366;2022-11-11T03:02:59;13.70;;;7.38;;
26622;SDS011;14254;50.968;5.366;2022-11-11T03:05:25;10.90;;;6.20;;
26622;SDS011;14254;50.968;5.366;2022-11-11T03:07:50;10.70;;;6.20;;
26622;SDS011;14254;50.968;5.366;2022-11-11T03:10:16;13.93;;;5.65;;
26622;SDS011;14254;50.968;5.366;2022-11-11T03:12:42;13.45;;;6.13;;
26622;SDS011;14254;50.968;5.366;2022-11-11T03:15:07;11.88;;;6.10;;
26622;SDS011;14254;50.968;5.366;2022-11-11T03:17:33;9.65;;;6.03;;
26622;SDS011;14254;50.968;5.366;2022-11-11T03:23:01;9.80;;;6.65;;
26622;SDS011;14254;50.968;5.366;2022-11-11T03:25:32;12.45;;;6.60;;
26622;SDS011;14254;50.968;5.366;2022-11-11T03:30:38;22.17;;;8.40;;
26622;SDS011;14254;50.968;5.366;2022-11-11T03:33:05;17.95;;;8.63;;
26622;SDS011;14254;50.968;5.366;2022-11-11T03:35:31;14.40;;;7.22;;
26622;SDS011;14254;50.968;5.366;2022-11-11T03:37:57;18.25;;;7.38;;
26622;SDS011;14254;50.968;5.366;2022-11-11T03:41:02;16.13;;;7.72;;
26622;SDS011;14254;50.968;5.366;2022-11-11T03:43:29;17.90;;;8.18;;
26622;SDS011;14254;50.968;5.366;2022-11-11T03:45:57;18.85;;;7.72;;
26622;SDS011;14254;50.968;5.366;2022-11-11T03:48:24;22.25;;;8.55;;
26622;SDS011;14254;50.968;5.366;2022-11-11T03:50:52;22.75;;;9.10;;
26622;SDS011;14254;50.968;5.366;2022-11-11T03:53:18;22.65;;;9.10;;
26622;SDS011;14254;50.968;5.366;2022-11-11T03:55:44;20.27;;;9.75;;
26622;SDS011;14254;50.968;5.366;2022-11-11T03:58:10;17.88;;;8.82;;
26622;SDS011;14254;50.968;5.366;2022-11-11T04:00:37;19.00;;;8.65;;
26622;SDS011;14254;50.968;5.366;2022-11-11T04:03:07;15.75;;;8.32;;
26622;SDS011;14254;50.968;5.366;2022-11-11T04:05:53;17.77;;;8.75;;
26622;SDS011;14254;50.968;5.366;2022-11-11T04:08:27;18.75;;;8.52;;
26622;SDS011;14254;50.968;5.366;2022-11-11T04:11:13;30.10;;;9.32;;
26622;SDS011;14254;50.968;5.366;2022-11-11T04:13:41;19.45;;;8.80;;
26622;SDS011;14254;50.968;5.366;2022-11-11T04:16:29;13.23;;;7.65;;
26622;SDS011;14254;50.968;5.366;2022-11-11T04:18:55;18.55;;;7.78;;
26622;SDS011;14254;50.968;5.366;2022-11-11T04:21:39;18.45;;;8.60;;
26622;SDS011;14254;50.968;5.366;2022-11-11T04:24:11;18.23;;;7.60;;
26622;SDS011;14254;50.968;5.366;2022-11-11T04:27:00;12.20;;;6.75;;
26622;SDS011;14254;50.968;5.366;2022-11-11T04:29:28;19.70;;;8.48;;
26622;SDS011;14254;50.968;5.366;2022-11-11T04:32:01;13.68;;;6.20;;
26622;SDS011;14254;50.968;5.366;2022-11-11T04:34:54;18.52;;;9.15;;
26622;SDS011;14254;50.968;5.366;2022-11-11T04:37:21;20.25;;;8.40;;
26622;SDS011;14254;50.968;5.366;2022-11-11T04:39:48;19.02;;;8.15;;
26622;SDS011;14254;50.968;5.366;2022-11-11T04:42:33;16.30;;;8.20;;
26622;SDS011;14254;50.968;5.366;2022-11-11T04:44:59;16.20;;;8.35;;
26622;SDS011;14254;50.968;5.366;2022-11-11T04:50:27;18.48;;;7.47;;
26622;SDS011;14254;50.968;5.366;2022-11-11T04:52:57;16.07;;;7.43;;
26622;SDS011;14254;50.968;5.366;2022-11-11T04:55:23;13.30;;;7.18;;
26622;SDS011;14254;50.968;5.366;2022-11-11T04:58:08;16.08;;;6.68;;
26622;SDS011;14254;50.968;5.366;2022-11-11T05:00:34;15.98;;;7.10;;
26622;SDS011;14254;50.968;5.366;2022-11-11T05:03:00;15.80;;;7.20;;
26622;SDS011;14254;50.968;5.366;2022-11-11T05:05:41;17.38;;;6.97;;
26622;SDS011;14254;50.968;5.366;2022-11-11T05:08:34;10.30;;;5.85;;
26622;SDS011;14254;50.968;5.366;2022-11-11T05:13:53;17.60;;;8.07;;
26622;SDS011;14254;50.968;5.366;2022-11-11T05:16:39;16.90;;;7.65;;
26622;SDS011;14254;50.968;5.366;2022-11-11T05:19:28;19.20;;;7.40;;
26622;SDS011;14254;50.968;5.366;2022-11-11T05:22:23;14.93;;;6.38;;
26622;SDS011;14254;50.968;5.366;2022-11-11T05:24:50;13.35;;;5.00;;
26622;SDS011;14254;50.968;5.366;2022-11-11T05:27:34;13.48;;;6.50;;
26622;SDS011;14254;50.968;5.366;2022-11-11T05:30:00;14.20;;;5.68;;
26622;SDS011;14254;50.968;5.366;2022-11-11T05:32:26;17.15;;;7.43;;
26622;SDS011;14254;50.968;5.366;2022-11-11T05:34:52;19.25;;;7.47;;
26622;SDS011;14254;50.968;5.366;2022-11-11T05:37:18;16.02;;;7.28;;
26622;SDS011;14254;50.968;5.366;2022-11-11T05:39:44;15.05;;;7.47;;
26622;SDS011;14254;50.968;5.366;2022-11-11T05:42:11;16.63;;;6.70;;
26622;SDS011;14254;50.968;5.366;2022-11-11T05:44:37;12.45;;;6.10;;
26622;SDS011;14254;50.968;5.366;2022-11-11T05:47:03;15.57;;;7.53;;
26622;SDS011;14254;50.968;5.366;2022-11-11T05:49:29;16.83;;;7.38;;
26622;SDS011;14254;50.968;5.366;2022-11-11T05:51:54;18.55;;;8.80;;
26622;SDS011;14254;50.968;5.366;2022-11-11T05:54:21;17.73;;;8.15;;
26622;SDS011;14254;50.968;5.366;2022-11-11T05:56:47;15.63;;;7.90;;
26622;SDS011;14254;50.968;5.366;2022-11-11T05:59:13;24.42;;;8.50;;
26622;SDS011;14254;50.968;5.366;2022-11-11T06:01:39;20.63;;;8.70;;
26622;SDS011;14254;50.968;5.366;2022-11-11T06:04:05;18.30;;;7.60;;
26622;SDS011;14254;50.968;5.366;2022-11-11T06:06:31;16.85;;;7.85;;
26622;SDS011;14254;50.968;5.366;2022-11-11T06:08:58;21.55;;;7.82;;
26622;SDS011;14254;50.968;5.366;2022-11-11T06:11:24;19.13;;;7.50;;
26622;SDS011;14254;50.968;5.366;2022-11-11T06:13:50;22.67;;;8.25;;
26622;SDS011;14254;50.968;5.366;2022-11-11T06:16:15;21.02;;;8.32;;
26622;SDS011;14254;50.968;5.366;2022-11-11T06:18:41;17.02;;;7.78;;
26622;SDS011;14254;50.968;5.366;2022-11-11T06:21:07;16.98;;;8.20;;
26622;SDS011;14254;50.968;5.366;2022-11-11T06:23:32;15.82;;;7.32;;
26622;SDS011;14254;50.968;5.366;2022-11-11T06:25:58;15.40;;;7.40;;
26622;SDS011;14254;50.968;5.366;2022-11-11T06:28:47;23.48;;;8.43;;
26622;SDS011;14254;50.968;5.366;2022-11-11T06:31:24;16.52;;;7.00;;
26622;SDS011;14254;50.968;5.366;2022-11-11T06:33:51;14.85;;;7.80;;
26622;SDS011;14254;50.968;5.366;2022-11-11T06:36:18;14.18;;;7.32;;
26622;SDS011;14254;50.968;5.366;2022-11-11T06:38:45;20.23;;;8.45;;
26622;SDS011;14254;50.968;5.366;2022-11-11T06:41:11;29.40;;;10.88;;
26622;SDS011;14254;50.968;5.366;2022-11-11T06:43:41;23.83;;;8.35;;
26622;SDS011;14254;50.968;5.366;2022-11-11T06:46:28;22.27;;;8.57;;
26622;SDS011;14254;50.968;5.366;2022-11-11T06:48:54;20.20;;;8.80;;
26622;SDS011;14254;50.968;5.366;2022-11-11T06:51:19;16.27;;;7.55;;
26622;SDS011;14254;50.968;5.366;2022-11-11T06:53:45;15.98;;;8.02;;
26622;SDS011;14254;50.968;5.366;2022-11-11T06:56:11;16.63;;;7.03;;
26622;SDS011;14254;50.968;5.366;2022-11-11T06:58:37;12.68;;;6.53;;
26622;SDS011;14254;50.968;5.366;2022-11-11T07:01:06;12.60;;;6.40;;
26622;SDS011;14254;50.968;5.366;2022-11-11T07:03:33;26.88;;;8.32;;
26622;SDS011;14254;50.968;5.366;2022-11-11T07:06:00;17.05;;;7.43;;
26622;SDS011;14254;50.968;5.366;2022-11-11T07:08:26;14.00;;;6.88;;
26622;SDS011;14254;50.968;5.366;2022-11-11T07:10:52;15.32;;;6.35;;
26622;SDS011;14254;50.968;5.366;2022-11-11T07:13:18;13.25;;;6.45;;
26622;SDS011;14254;50.968;5.366;2022-11-11T07:15:44;9.70;;;5.68;;
26622;SDS011;14254;50.968;5.366;2022-11-11T07:18:10;9.90;;;5.40;;
26622;SDS011;14254;50.968;5.366;2022-11-11T07:20:36;9.82;;;5.90;;
26622;SDS011;14254;50.968;5.366;2022-11-11T07:23:02;10.70;;;5.70;;
26622;SDS011;14254;50.968;5.366;2022-11-11T07:25:28;15.80;;;6.65;;
26622;SDS011;14254;50.968;5.366;2022-11-11T07:27:54;20.02;;;7.35;;
26622;SDS011;14254;50.968;5.366;2022-11-11T07:30:20;18.35;;;8.05;;
26622;SDS011;14254;50.968;5.366;2022-11-11T07:32:46;16.50;;;7.72;;
26622;SDS011;14254;50.968;5.366;2022-11-11T07:35:13;17.25;;;8.10;;
26622;SDS011;14254;50.968;5.366;2022-11-11T07:37:40;17.92;;;7.75;;
26622;SDS011;14254;50.968;5.366;2022-11-11T07:40:06;17.40;;;8.35;;
26622;SDS011;14254;50.968;5.366;2022-11-11T07:42:36;17.85;;;8.20;;
26622;SDS011;14254;50.968;5.366;2022-11-11T07:45:03;16.30;;;7.32;;
26622;SDS011;14254;50.968;5.366;2022-11-11T07:47:29;22.38;;;8.05;;
26622;SDS011;14254;50.968;5.366;2022-11-11T07:49:55;15.55;;;7.88;;
26622;SDS011;14254;50.968;5.366;2022-11-11T07:52:20;11.90;;;6.47;;
26622;SDS011;14254;50.968;5.366;2022-11-11T07:54:47;15.57;;;7.30;;
26622;SDS011;14254;50.968;5.366;2022-11-11T07:57:14;18.48;;;6.82;;
26622;SDS011;14254;50.968;5.366;2022-11-11T07:59:39;16.15;;;6.82;;
26622;SDS011;14254;50.968;5.366;2022-11-11T08:02:08;14.23;;;7.53;;
26622;SDS011;14254;50.968;5.366;2022-11-11T08:04:35;13.95;;;6.63;;
26622;SDS011;14254;50.968;5.366;2022-11-11T08:07:00;16.85;;;6.32;;
26622;SDS011;14254;50.968;5.366;2022-11-11T08:09:26;15.90;;;6.53;;
26622;SDS011;14254;50.968;5.366;2022-11-11T08:11:52;14.85;;;7.43;;
26622;SDS011;14254;50.968;5.366;2022-11-11T08:14:36;14.82;;;7.28;;
26622;SDS011;14254;50.968;5.366;2022-11-11T08:17:02;13.63;;;7.07;;
26622;SDS011;14254;50.968;5.366;2022-11-11T08:19:27;15.52;;;6.70;;
26622;SDS011;14254;50.968;5.366;2022-11-11T08:21:53;11.63;;;7.30;;
26622;SDS011;14254;50.968;5.366;2022-11-11T08:24:19;17.25;;;7.45;;
26622;SDS011;14254;50.968;5.366;2022-11-11T08:26:45;19.23;;;7.10;;
26622;SDS011;14254;50.968;5.366;2022-11-11T08:29:11;12.82;;;6.22;;
26622;SDS011;14254;50.968;5.366;2022-11-11T08:31:36;16.77;;;7.03;;
26622;SDS011;14254;50.968;5.366;2022-11-11T08:34:03;17.95;;;6.78;;
26622;SDS011;14254;50.968;5.366;2022-11-11T08:36:29;14.15;;;5.63;;
26622;SDS011;14254;50.968;5.366;2022-11-11T08:38:55;18.13;;;6.82;;
26622;SDS011;14254;50.968;5.366;2022-11-11T08:41:21;11.18;;;6.20;;
26622;SDS011;14254;50.968;5.366;2022-11-11T08:43:49;12.25;;;5.32;;
26622;SDS011;14254;50.968;5.366;2022-11-11T08:46:17;10.15;;;6.65;;
26622;SDS011;14254;50.968;5.366;2022-11-11T08:48:42;14.82;;;5.82;;
26622;SDS011;14254;50.968;5.366;2022-11-11T08:51:08;7.70;;;4.60;;
26622;SDS011;14254;50.968;5.366;2022-11-11T08:53:34;7.03;;;4.03;;
26622;SDS011;14254;50.968;5.366;2022-11-11T08:56:00;9.50;;;3.92;;
26622;SDS011;14254;50.968;5.366;2022-11-11T08:58:27;11.57;;;3.75;;
26622;SDS011;14254;50.968;5.366;2022-11-11T09:00:53;7.97;;;4.13;;
26622;SDS011;14254;50.968;5.366;2022-11-11T09:03:19;9.93;;;4.25;;
26622;SDS011;14254;50.968;5.366;2022-11-11T09:05:44;7.28;;;3.50;;
26622;SDS011;14254;50.968;5.366;2022-11-11T09:08:11;5.45;;;3.22;;
26622;SDS011;14254;50.968;5.366;2022-11-11T09:10:37;8.20;;;3.53;;
26622;SDS011;14254;50.968;5.366;2022-11-11T09:13:03;8.43;;;3.97;;
26622;SDS011;14254;50.968;5.366;2022-11-11T09:15:29;6.63;;;3.42;;
26622;SDS011;14254;50.968;5.366;2022-11-11T09:17:55;6.78;;;3.50;;
26622;SDS011;14254;50.968;5.366;2022-11-11T09:20:21;6.65;;;2.90;;
26622;SDS011;14254;50.968;5.366;2022-11-11T09:22:47;7.90;;;3.38;;
26622;SDS011;14254;50.968;5.366;2022-11-11T09:25:14;3.95;;;2.50;;
26622;SDS011;14254;50.968;5.366;2022-11-11T09:27:41;6.30;;;3.20;;
26622;SDS011;14254;50.968;5.366;2022-11-11T09:30:07;5.05;;;2.88;;
26622;SDS011;14254;50.968;5.366;2022-11-11T09:32:34;7.00;;;3.33;;
26622;SDS011;14254;50.968;5.366;2022-11-11T09:35:01;6.50;;;2.90;;
26622;SDS011;14254;50.968;5.366;2022-11-11T09:37:27;4.72;;;2.70;;
26622;SDS011;14254;50.968;5.366;2022-11-11T09:39:53;7.50;;;3.72;;
26622;SDS011;14254;50.968;5.366;2022-11-11T09:42:38;7.00;;;2.10;;
26622;SDS011;14254;50.968;5.366;2022-11-11T09:45:12;7.07;;;3.05;;
26622;SDS011;14254;50.968;5.366;2022-11-11T09:47:49;5.25;;;2.75;;
26622;SDS011;14254;50.968;5.366;2022-11-11T09:50:22;16.70;;;2.60;;
26622;SDS011;14254;50.968;5.366;2022-11-11T09:55:38;5.47;;;2.72;;
26622;SDS011;14254;50.968;5.366;2022-11-11T09:58:17;5.55;;;2.63;;
26622;SDS011;14254;50.968;5.366;2022-11-11T10:01:00;5.65;;;2.58;;
26622;SDS011;14254;50.968;5.366;2022-11-11T10:03:33;4.60;;;2.45;;
26622;SDS011;14254;50.968;5.366;2022-11-11T10:06:08;5.45;;;2.80;;
26622;SDS011;14254;50.968;5.366;2022-11-11T10:08:43;6.25;;;2.50;;
26622;SDS011;14254;50.968;5.366;2022-11-11T10:14:17;3.63;;;2.03;;
26622;SDS011;14254;50.968;5.366;2022-11-11T10:22:11;4.10;;;2.25;;
26622;SDS011;14254;50.968;5.366;2022-11-11T10:24:59;3.63;;;1.95;;
26622;SDS011;14254;50.968;5.366;2022-11-11T10:27:32;5.05;;;1.50;;
26622;SDS011;14254;50.968;5.366;2022-11-11T10:29:58;3.95;;;1.35;;
26622;SDS011;14254;50.968;5.366;2022-11-11T10:32:37;8.02;;;1.90;;
26622;SDS011;14254;50.968;5.366;2022-11-11T10:35:14;3.05;;;1.67;;
26622;SDS011;14254;50.968;5.366;2022-11-11T10:37:42;3.10;;;1.60;;
26622;SDS011;14254;50.968;5.366;2022-11-11T10:40:12;6.25;;;1.42;;
26622;SDS011;14254;50.968;5.366;2022-11-11T10:42:45;6.75;;;1.80;;
26622;SDS011;14254;50.968;5.366;2022-11-11T10:45:23;3.42;;;1.63;;
26622;SDS011;14254;50.968;5.366;2022-11-11T10:48:08;3.53;;;1.30;;
26622;SDS011;14254;50.968;5.366;2022-11-11T10:50:40;1.40;;;0.98;;
26622;SDS011;14254;50.968;5.366;2022-11-11T10:53:52;9.10;;;1.60;;
26622;SDS011;14254;50.968;5.366;2022-11-11T10:56:42;2.85;;;1.33;;
26622;SDS011;14254;50.968;5.366;2022-11-11T10:59:25;3.95;;;1.10;;
26622;SDS011;14254;50.968;5.366;2022-11-11T11:04:32;4.43;;;1.63;;
26622;SDS011;14254;50.968;5.366;2022-11-11T11:07:13;7.33;;;1.47;;
26622;SDS011;14254;50.968;5.366;2022-11-11T11:09:59;3.67;;;1.70;;
26622;SDS011;14254;50.968;5.366;2022-11-11T11:12:33;2.95;;;1.60;;
26622;SDS011;14254;50.968;5.366;2022-11-11T11:15:12;4.22;;;1.45;;
26622;SDS011;14254;50.968;5.366;2022-11-11T11:20:30;2.08;;;1.20;;
26622;SDS011;14254;50.968;5.366;2022-11-11T11:22:56;5.43;;;1.55;;
26622;SDS011;14254;50.968;5.366;2022-11-11T11:25:27;3.45;;;1.42;;
26622;SDS011;14254;50.968;5.366;2022-11-11T11:30:34;2.75;;;1.50;;
26622;SDS011;14254;50.968;5.366;2022-11-11T11:33:00;2.20;;;1.35;;
26622;SDS011;14254;50.968;5.366;2022-11-11T11:35:29;2.67;;;1.30;;
26622;SDS011;14254;50.968;5.366;2022-11-11T11:37:54;4.43;;;1.70;;
26622;SDS011;14254;50.968;5.366;2022-11-11T11:40:20;2.70;;;1.35;;
26622;SDS011;14254;50.968;5.366;2022-11-11T11:42:46;6.40;;;2.20;;
26622;SDS011;14254;50.968;5.366;2022-11-11T11:45:16;4.68;;;2.00;;
26622;SDS011;14254;50.968;5.366;2022-11-11T11:50:49;5.28;;;1.70;;
26622;SDS011;14254;50.968;5.366;2022-11-11T11:53:28;3.35;;;1.60;;
26622;SDS011;14254;50.968;5.366;2022-11-11T11:58:52;2.13;;;1.35;;
26622;SDS011;14254;50.968;5.366;2022-11-11T12:07:07;3.17;;;1.80;;
26622;SDS011;14254;50.968;5.366;2022-11-11T12:12:27;5.07;;;1.40;;
26622;SDS011;14254;50.968;5.366;2022-11-11T12:20:40;4.00;;;1.30;;
26622;SDS011;14254;50.968;5.366;2022-11-11T12:26:07;1.88;;;1.20;;
26622;SDS011;14254;50.968;5.366;2022-11-11T12:37:03;1.90;;;1.25;;
26622;SDS011;14254;50.968;5.366;2022-11-11T12:39:37;2.75;;;1.40;;
26622;SDS011;14254;50.968;5.366;2022-11-11T12:45:12;5.55;;;1.55;;
26622;SDS011;14254;50.968;5.366;2022-11-11T12:50:47;5.82;;;1.42;;
26622;SDS011;14254;50.968;5.366;2022-11-11T12:59:04;2.65;;;1.27;;
26622;SDS011;14254;50.968;5.366;2022-11-11T13:15:56;2.83;;;1.10;;
26622;SDS011;14254;50.968;5.366;2022-11-11T13:18:29;3.55;;;1.30;;
26622;SDS011;14254;50.968;5.366;2022-11-11T13:21:08;1.90;;;1.30;;
26622;SDS011;14254;50.968;5.366;2022-11-11T13:23:42;6.43;;;1.42;;
26622;SDS011;14254;50.968;5.366;2022-11-11T13:26:18;3.00;;;1.30;;
26622;SDS011;14254;50.968;5.366;2022-11-11T13:28:53;2.30;;;1.27;;
26622;SDS011;14254;50.968;5.366;2022-11-11T13:31:31;4.43;;;1.35;;
26622;SDS011;14254;50.968;5.366;2022-11-11T13:34:05;2.72;;;1.40;;
26622;SDS011;14254;50.968;5.366;2022-11-11T13:36:40;5.13;;;1.83;;
26622;SDS011;14254;50.968;5.366;2022-11-11T13:39:17;3.15;;;1.38;;
26622;SDS011;14254;50.968;5.366;2022-11-11T13:42:04;5.30;;;1.50;;
26622;SDS011;14254;50.968;5.366;2022-11-11T13:44:50;5.75;;;1.70;;
26622;SDS011;14254;50.968;5.366;2022-11-11T13:47:22;2.05;;;1.20;;
26622;SDS011;14254;50.968;5.366;2022-11-11T13:54:59;4.22;;;1.58;;
26622;SDS011;14254;50.968;5.366;2022-11-11T13:57:29;2.90;;;1.30;;
26622;SDS011;14254;50.968;5.366;2022-11-11T14:00:00;4.53;;;1.80;;
26622;SDS011;14254;50.968;5.366;2022-11-11T14:18:03;5.57;;;1.75;;
26622;SDS011;14254;50.968;5.366;2022-11-11T14:20:55;3.33;;;1.52;;
26622;SDS011;14254;50.968;5.366;2022-11-11T14:28:31;4.00;;;1.52;;
26622;SDS011;14254;50.968;5.366;2022-11-11T14:52:16;1.90;;;1.45;;
26622;SDS011;14254;50.968;5.366;2022-11-11T14:54:58;3.35;;;1.48;;
26622;SDS011;14254;50.968;5.366;2022-11-11T15:00:30;4.53;;;1.67;;
26622;SDS011;14254;50.968;5.366;2022-11-11T15:03:48;3.90;;;1.55;;
26622;SDS011;14254;50.968;5.366;2022-11-11T15:06:19;2.80;;;1.40;;
26622;SDS011;14254;50.968;5.366;2022-11-11T15:12:06;2.65;;;1.50;;
26622;SDS011;14254;50.968;5.366;2022-11-11T15:28:44;2.88;;;1.55;;
26622;SDS011;14254;50.968;5.366;2022-11-11T15:31:30;6.50;;;1.92;;
26622;SDS011;14254;50.968;5.366;2022-11-11T15:36:54;3.65;;;1.85;;
26622;SDS011;14254;50.968;5.366;2022-11-11T15:39:28;5.03;;;2.08;;
26622;SDS011;14254;50.968;5.366;2022-11-11T15:42:29;6.25;;;2.40;;
26622;SDS011;14254;50.968;5.366;2022-11-11T15:44:57;3.47;;;2.53;;
26622;SDS011;14254;50.968;5.366;2022-11-11T15:47:25;6.72;;;2.50;;
26622;SDS011;14254;50.968;5.366;2022-11-11T15:49:52;4.07;;;2.05;;
26622;SDS011;14254;50.968;5.366;2022-11-11T15:52:30;5.30;;;2.35;;
26622;SDS011;14254;50.968;5.366;2022-11-11T15:54:58;4.72;;;2.00;;
26622;SDS011;14254;50.968;5.366;2022-11-11T15:57:30;5.60;;;2.13;;
26622;SDS011;14254;50.968;5.366;2022-11-11T16:02:29;6.82;;;2.47;;
26622;SDS011;14254;50.968;5.366;2022-11-11T16:05:02;7.32;;;2.85;;
26622;SDS011;14254;50.968;5.366;2022-11-11T16:07:35;8.63;;;2.92;;
26622;SDS011;14254;50.968;5.366;2022-11-11T16:10:06;8.65;;;2.45;;
26622;SDS011;14254;50.968;5.366;2022-11-11T16:21:15;7.80;;;2.90;;
26622;SDS011;14254;50.968;5.366;2022-11-11T16:23:45;4.38;;;2.85;;
26622;SDS011;14254;50.968;5.366;2022-11-11T16:26:11;6.55;;;3.20;;
26622;SDS011;14254;50.968;5.366;2022-11-11T16:28:45;6.72;;;2.80;;
26622;SDS011;14254;50.968;5.366;2022-11-11T16:37:06;6.70;;;3.60;;
26622;SDS011;14254;50.968;5.366;2022-11-11T16:39:33;8.70;;;4.20;;
26622;SDS011;14254;50.968;5.366;2022-11-11T16:42:03;12.43;;;5.32;;
26622;SDS011;14254;50.968;5.366;2022-11-11T16:50:06;6.32;;;3.35;;
26622;SDS011;14254;50.968;5.366;2022-11-11T16:52:46;8.38;;;3.55;;
26622;SDS011;14254;50.968;5.366;2022-11-11T16:55:18;9.02;;;4.70;;
26622;SDS011;14254;50.968;5.366;2022-11-11T16:57:46;11.85;;;6.72;;
26622;SDS011;14254;50.968;5.366;2022-11-11T17:00:17;10.57;;;6.15;;
26622;SDS011;14254;50.968;5.366;2022-11-11T17:02:45;7.32;;;5.07;;
26622;SDS011;14254;50.968;5.366;2022-11-11T17:05:11;9.70;;;5.57;;
26622;SDS011;14254;50.968;5.366;2022-11-11T17:07:38;9.85;;;5.78;;
26622;SDS011;14254;50.968;5.366;2022-11-11T17:10:19;13.15;;;6.65;;
26622;SDS011;14254;50.968;5.366;2022-11-11T17:12:47;15.00;;;7.45;;
26622;SDS011;14254;50.968;5.366;2022-11-11T17:15:16;11.82;;;7.43;;
26622;SDS011;14254;50.968;5.366;2022-11-11T17:17:43;9.80;;;7.00;;
26622;SDS011;14254;50.968;5.366;2022-11-11T17:20:13;13.00;;;6.03;;
26622;SDS011;14254;50.968;5.366;2022-11-11T17:22:50;9.75;;;5.10;;
26622;SDS011;14254;50.968;5.366;2022-11-11T17:25:17;8.02;;;5.40;;
26622;SDS011;14254;50.968;5.366;2022-11-11T17:27:43;7.30;;;5.40;;
26622;SDS011;14254;50.968;5.366;2022-11-11T17:30:09;9.05;;;5.88;;
26622;SDS011;14254;50.968;5.366;2022-11-11T17:32:36;12.15;;;6.40;;
26622;SDS011;14254;50.968;5.366;2022-11-11T17:35:02;9.30;;;6.00;;
26622;SDS011;14254;50.968;5.366;2022-11-11T17:37:32;12.40;;;6.13;;
26622;SDS011;14254;50.968;5.366;2022-11-11T17:40:02;11.13;;;6.07;;
26622;SDS011;14254;50.968;5.366;2022-11-11T17:42:31;9.38;;;5.43;;
26622;SDS011;14254;50.968;5.366;2022-11-11T17:44:58;10.13;;;5.78;;
26622;SDS011;14254;50.968;5.366;2022-11-11T17:47:23;9.35;;;5.53;;
26622;SDS011;14254;50.968;5.366;2022-11-11T17:49:49;9.23;;;6.03;;
26622;SDS011;14254;50.968;5.366;2022-11-11T17:52:15;9.98;;;5.72;;
26622;SDS011;14254;50.968;5.366;2022-11-11T17:54:41;9.75;;;6.10;;
26622;SDS011;14254;50.968;5.366;2022-11-11T17:57:07;7.95;;;6.40;;
26622;SDS011;14254;50.968;5.366;2022-11-11T17:59:32;9.10;;;6.32;;
26622;SDS011;14254;50.968;5.366;2022-11-11T18:01:58;8.70;;;6.72;;
26622;SDS011;14254;50.968;5.366;2022-11-11T18:04:24;9.20;;;6.18;;
26622;SDS011;14254;50.968;5.366;2022-11-11T18:06:50;11.70;;;7.28;;
26622;SDS011;14254;50.968;5.366;2022-11-11T18:09:16;13.50;;;7.63;;
26622;SDS011;14254;50.968;5.366;2022-11-11T18:11:41;10.35;;;7.85;;
26622;SDS011;14254;50.968;5.366;2022-11-11T18:14:07;11.88;;;6.65;;
26622;SDS011;14254;50.968;5.366;2022-11-11T18:16:32;12.55;;;7.18;;